Time;durP1;ratioP1;P1;durP2;ratioP2;P2;SDS_P1;SDS_P2;PMS_P1;PMS_P2;Temp;Humidity;BMP_temperature;BMP_pressure;BME280_temperature;BME280_humidity;BME280_pressure;Samples;Min_cycle;Max_cycle;Signal;HPM_P1;HPM_P2
2022/01/20 00:02:25;;;;;;;16.20;2.60;;;;;;;;;;6247824;22;20177;-92
2022/01/20 00:05:07;;;;;;;8.90;2.93;;;;;;;;;;6248179;23;20190;-92
2022/01/20 00:07:47;;;;;;;9.03;3.47;;;;;;;;;;6248488;23;20171;-92
2022/01/20 00:27:05;;;;;;;9.00;3.50;;;;;;;;;;6249821;23;20225;-92
2022/01/20 00:29:57;;;;;;;11.17;3.87;;;;;;;;;;6250383;23;20172;-92
2022/01/20 00:32:27;;;;;;;10.67;3.60;;;;;;;;;;6250524;23;20181;-91
2022/01/20 00:35:18;;;;;;;9.27;4.67;;;;;;;;;;6249902;23;20162;-90
2022/01/20 00:37:45;;;;;;;8.33;3.63;;;;;;;;;;6250381;23;20227;-92
2022/01/20 00:40:16;;;;;;;10.03;3.00;;;;;;;;;;6250545;23;20174;-91
2022/01/20 00:42:45;;;;;;;7.00;2.93;;;;;;;;;;6250181;23;20181;-91
2022/01/20 00:45:15;;;;;;;8.13;3.73;;;;;;;;;;6249375;23;20191;-92
2022/01/20 00:47:43;;;;;;;10.73;3.67;;;;;;;;;;6250071;23;20170;-92
2022/01/20 00:50:12;;;;;;;14.67;3.53;;;;;;;;;;6249644;23;20185;-92
2022/01/20 00:52:41;;;;;;;4.87;2.37;;;;;;;;;;6250132;23;20191;-92
2022/01/20 00:55:09;;;;;;;7.90;3.73;;;;;;;;;;6250161;23;20170;-92
2022/01/20 00:57:39;;;;;;;8.47;3.30;;;;;;;;;;6250325;23;20186;-92
2022/01/20 01:00:09;;;;;;;10.73;3.03;;;;;;;;;;6249351;23;20208;-91
2022/01/20 01:02:39;;;;;;;10.87;2.47;;;;;;;;;;6249788;22;20207;-92
2022/01/20 01:05:11;;;;;;;10.90;2.70;;;;;;;;;;6249524;23;20189;-92
2022/01/20 01:07:47;;;;;;;4.00;2.57;;;;;;;;;;6249636;23;20173;-91
2022/01/20 01:10:17;;;;;;;6.67;4.40;;;;;;;;;;6249680;23;20176;-92
2022/01/20 01:12:52;;;;;;;10.23;3.23;;;;;;;;;;6249440;23;20178;-92
2022/01/20 01:15:23;;;;;;;9.37;2.80;;;;;;;;;;6249830;23;20226;-92
2022/01/20 01:21:08;;;;;;;12.07;3.87;;;;;;;;;;6250278;23;20182;-92
2022/01/20 01:23:36;;;;;;;5.00;2.80;;;;;;;;;;6249870;23;20184;-91
2022/01/20 01:26:05;;;;;;;4.77;3.20;;;;;;;;;;6249797;23;20193;-92
2022/01/20 01:28:35;;;;;;;7.70;2.50;;;;;;;;;;6249378;23;20201;-91
2022/01/20 01:31:26;;;;;;;12.40;3.07;;;;;;;;;;6250375;23;20220;-93
2022/01/20 01:33:57;;;;;;;10.63;4.50;;;;;;;;;;6249814;23;20182;-91
2022/01/20 01:36:28;;;;;;;10.23;3.63;;;;;;;;;;6249575;23;20173;-91
2022/01/20 01:38:57;;;;;;;21.27;3.10;;;;;;;;;;6249961;23;20175;-92
2022/01/20 01:41:28;;;;;;;14.53;3.40;;;;;;;;;;6249479;23;20196;-91
2022/01/20 01:44:01;;;;;;;5.30;2.73;;;;;;;;;;6249407;23;20165;-90
2022/01/20 01:46:30;;;;;;;5.83;1.87;;;;;;;;;;6249322;23;20193;-89
2022/01/20 01:48:59;;;;;;;3.93;3.23;;;;;;;;;;6249501;23;20178;-89
2022/01/20 01:51:28;;;;;;;8.37;3.27;;;;;;;;;;6249271;23;20235;-89
2022/01/20 01:53:56;;;;;;;3.03;1.40;;;;;;;;;;6249476;23;20174;-89
2022/01/20 01:56:25;;;;;;;2.50;2.37;;;;;;;;;;6248892;23;20173;-89
2022/01/20 01:58:55;;;;;;;5.27;3.73;;;;;;;;;;6248537;23;20213;-88
2022/01/20 02:01:26;;;;;;;6.63;2.30;;;;;;;;;;6248748;23;20227;-89
2022/01/20 02:04:00;;;;;;;2.97;2.57;;;;;;;;;;6249302;22;20193;-90
2022/01/20 02:06:50;;;;;;;3.60;2.47;;;;;;;;;;6248991;23;20213;-91
2022/01/20 02:09:34;;;;;;;4.73;2.30;;;;;;;;;;6248807;23;20181;-91
2022/01/20 02:17:56;;;;;;;4.83;1.87;;;;;;;;;;6249485;23;20246;-89
2022/01/20 02:20:26;;;;;;;1.20;1.20;;;;;;;;;;6249084;23;20174;-91
2022/01/20 02:22:54;;;;;;;10.47;3.40;;;;;;;;;;6249343;23;20232;-90
2022/01/20 02:25:23;;;;;;;3.00;1.63;;;;;;;;;;6249356;23;20193;-90
2022/01/20 02:27:52;;;;;;;3.70;2.47;;;;;;;;;;6249079;23;20192;-89
2022/01/20 02:30:21;;;;;;;1.93;1.70;;;;;;;;;;6249073;23;20193;-90
2022/01/20 02:32:53;;;;;;;0.70;0.70;;;;;;;;;;6249143;23;20228;-90
2022/01/20 02:35:22;;;;;;;18.57;2.83;;;;;;;;;;6248614;23;20174;-89
2022/01/20 02:37:57;;;;;;;2.33;1.73;;;;;;;;;;6248781;23;20192;-90
2022/01/20 02:44:48;;;;;;;4.60;3.90;;;;;;;;;;6249110;23;20180;-89
2022/01/20 02:46:08;;;;;;;4.70;2.53;;;;;;;;;;6249098;23;20235;-88
2022/01/20 02:48:37;;;;;;;3.50;2.30;;;;;;;;;;6248255;23;20223;-89
2022/01/20 02:51:05;;;;;;;2.40;2.17;;;;;;;;;;6248390;23;20185;-90
2022/01/20 02:53:35;;;;;;;1.40;1.37;;;;;;;;;;6248677;23;20174;-90
2022/01/20 02:56:03;;;;;;;1.77;1.77;;;;;;;;;;6248543;23;20180;-91
2022/01/20 02:58:32;;;;;;;4.73;2.23;;;;;;;;;;6247743;23;20196;-90
2022/01/20 03:01:00;;;;;;;8.13;2.97;;;;;;;;;;6248984;23;20224;-90
2022/01/20 03:03:29;;;;;;;5.43;1.50;;;;;;;;;;6248630;22;20189;-91
2022/01/20 03:05:57;;;;;;;1.57;1.47;;;;;;;;;;6248603;23;20193;-91
2022/01/20 03:08:26;;;;;;;3.63;1.30;;;;;;;;;;6248505;23;20223;-91
2022/01/20 03:10:56;;;;;;;3.70;1.77;;;;;;;;;;6248675;23;20206;-90
2022/01/20 03:13:24;;;;;;;4.90;2.03;;;;;;;;;;6248903;23;20178;-90
2022/01/20 03:15:52;;;;;;;1.90;1.37;;;;;;;;;;6247979;23;20172;-89
2022/01/20 03:18:21;;;;;;;1.87;1.73;;;;;;;;;;6248548;23;20200;-89
2022/01/20 03:20:49;;;;;;;5.63;2.40;;;;;;;;;;6248528;23;20256;-89
2022/01/20 03:23:18;;;;;;;2.43;2.27;;;;;;;;;;6248703;23;20173;-89
2022/01/20 03:25:46;;;;;;;2.37;1.43;;;;;;;;;;6248261;23;20193;-89
2022/01/20 03:28:16;;;;;;;3.30;1.60;;;;;;;;;;6248319;23;20174;-89
2022/01/20 03:30:44;;;;;;;5.97;1.40;;;;;;;;;;6248580;23;20224;-89
2022/01/20 03:33:13;;;;;;;5.10;2.13;;;;;;;;;;6248417;23;20175;-89
2022/01/20 03:35:41;;;;;;;2.10;1.40;;;;;;;;;;6248468;23;20166;-90
2022/01/20 03:38:10;;;;;;;11.13;3.17;;;;;;;;;;6248425;23;20174;-89
2022/01/20 03:40:38;;;;;;;10.17;3.67;;;;;;;;;;6247927;23;20173;-90
2022/01/20 03:43:07;;;;;;;6.40;2.97;;;;;;;;;;6247908;23;20208;-90
2022/01/20 03:45:38;;;;;;;3.90;1.57;;;;;;;;;;6247982;23;20277;-90
2022/01/20 03:48:10;;;;;;;4.53;1.80;;;;;;;;;;6247926;23;20224;-90
2022/01/20 03:53:26;;;;;;;5.33;2.27;;;;;;;;;;6247439;23;20255;-89
2022/01/20 03:55:55;;;;;;;12.50;2.53;;;;;;;;;;6248666;23;20190;-89
2022/01/20 03:58:23;;;;;;;2.03;1.20;;;;;;;;;;6248063;23;20178;-89
2022/01/20 04:00:53;;;;;;;4.60;2.03;;;;;;;;;;6248460;23;20240;-89
2022/01/20 04:03:22;;;;;;;4.30;2.07;;;;;;;;;;6247366;22;20194;-90
2022/01/20 04:08:37;;;;;;;5.07;2.50;;;;;;;;;;6227268;23;20193;-89
2022/01/20 04:11:07;;;;;;;9.77;2.43;;;;;;;;;;6247930;23;20178;-89
2022/01/20 04:13:35;;;;;;;10.47;3.40;;;;;;;;;;6247886;23;20204;-90
2022/01/20 04:16:12;;;;;;;13.10;3.87;;;;;;;;;;6247773;23;20170;-90
2022/01/20 04:18:51;;;;;;;9.93;3.70;;;;;;;;;;6247730;23;20180;-90
2022/01/20 04:21:19;;;;;;;16.00;4.80;;;;;;;;;;6248111;23;20170;-91
2022/01/20 04:23:48;;;;;;;13.67;4.80;;;;;;;;;;6248331;23;20184;-90
2022/01/20 04:26:16;;;;;;;5.50;1.97;;;;;;;;;;6248627;23;20251;-90
2022/01/20 04:28:45;;;;;;;10.23;3.13;;;;;;;;;;6248553;23;20177;-91
2022/01/20 04:31:19;;;;;;;11.10;3.13;;;;;;;;;;6247989;23;20170;-91
2022/01/20 04:33:48;;;;;;;16.13;4.30;;;;;;;;;;6247359;23;20173;-91
2022/01/20 04:36:17;;;;;;;16.87;5.20;;;;;;;;;;6247532;23;20174;-91
2022/01/20 04:38:45;;;;;;;6.03;3.30;;;;;;;;;;6248064;23;20178;-91
2022/01/20 04:41:14;;;;;;;12.60;4.23;;;;;;;;;;6247943;23;20213;-91
2022/01/20 04:43:42;;;;;;;18.70;5.13;;;;;;;;;;6247826;23;20174;-91
2022/01/20 04:46:17;;;;;;;9.93;4.33;;;;;;;;;;6247977;23;20225;-91
2022/01/20 04:49:03;;;;;;;6.50;3.17;;;;;;;;;;6248204;23;20166;-91
2022/01/20 04:57:16;;;;;;;11.33;3.37;;;;;;;;;;6247913;23;20154;-91
2022/01/20 04:59:44;;;;;;;8.73;2.97;;;;;;;;;;6247259;23;20227;-91
2022/01/20 05:02:13;;;;;;;6.30;2.50;;;;;;;;;;6249082;22;20200;-91
2022/01/20 05:04:43;;;;;;;10.57;3.20;;;;;;;;;;6249168;23;20189;-91
2022/01/20 05:07:19;;;;;;;15.13;3.20;;;;;;;;;;6248989;23;20194;-91
2022/01/20 05:09:48;;;;;;;7.00;2.40;;;;;;;;;;6249071;23;20230;-90
2022/01/20 05:12:21;;;;;;;5.93;3.07;;;;;;;;;;6249210;23;20173;-90
2022/01/20 05:14:49;;;;;;;10.00;3.73;;;;;;;;;;6249409;23;20166;-91
2022/01/20 05:17:18;;;;;;;6.10;2.60;;;;;;;;;;6249094;23;20200;-91
2022/01/20 05:19:48;;;;;;;12.70;3.83;;;;;;;;;;6249404;23;20200;-91
2022/01/20 05:22:16;;;;;;;8.13;3.77;;;;;;;;;;6249154;23;20174;-91
2022/01/20 05:24:44;;;;;;;8.23;3.13;;;;;;;;;;6249197;23;20170;-91
2022/01/20 05:27:13;;;;;;;11.70;3.53;;;;;;;;;;6249334;23;20197;-91
2022/01/20 05:29:41;;;;;;;8.83;2.87;;;;;;;;;;6249472;23;20169;-91
2022/01/20 05:32:09;;;;;;;8.37;2.97;;;;;;;;;;6249525;23;20190;-91
2022/01/20 05:34:38;;;;;;;5.90;3.23;;;;;;;;;;6248896;23;20178;-91
2022/01/20 05:37:08;;;;;;;6.43;2.60;;;;;;;;;;6249039;23;20174;-91
2022/01/20 05:39:36;;;;;;;4.93;2.60;;;;;;;;;;6249154;23;20184;-91
2022/01/20 05:42:05;;;;;;;6.30;2.50;;;;;;;;;;6248749;23;20181;-91
2022/01/20 05:44:33;;;;;;;5.27;2.33;;;;;;;;;;6248533;23;20180;-92
2022/01/20 05:47:06;;;;;;;4.27;2.13;;;;;;;;;;6248589;23;20217;-91
2022/01/20 05:49:35;;;;;;;8.00;3.17;;;;;;;;;;6248353;23;20166;-91
2022/01/20 05:52:04;;;;;;;8.33;2.87;;;;;;;;;;6248272;23;20181;-88
2022/01/20 05:54:33;;;;;;;4.30;2.00;;;;;;;;;;6248792;23;20180;-91
2022/01/20 05:57:02;;;;;;;5.83;3.10;;;;;;;;;;6248615;23;20162;-91
2022/01/20 05:59:31;;;;;;;7.73;3.53;;;;;;;;;;6248693;23;20228;-90
2022/01/20 06:02:09;;;;;;;6.67;2.27;;;;;;;;;;6248733;23;20192;-92
2022/01/20 06:04:37;;;;;;;5.73;2.73;;;;;;;;;;6248750;23;20170;-92
2022/01/20 06:07:06;;;;;;;2.57;1.37;;;;;;;;;;6248552;23;20221;-91
2022/01/20 06:09:36;;;;;;;4.50;2.17;;;;;;;;;;6248381;23;20200;-91
2022/01/20 06:12:05;;;;;;;8.40;3.77;;;;;;;;;;6248993;23;20174;-92
2022/01/20 06:14:33;;;;;;;3.57;2.13;;;;;;;;;;6248667;23;20173;-92
2022/01/20 06:17:02;;;;;;;6.27;2.27;;;;;;;;;;6248522;23;20182;-92
2022/01/20 06:19:31;;;;;;;4.17;2.63;;;;;;;;;;6249362;23;20193;-90
2022/01/20 06:22:01;;;;;;;9.97;2.10;;;;;;;;;;6249581;23;20196;-89
2022/01/20 06:24:30;;;;;;;6.47;3.13;;;;;;;;;;6249453;23;20200;-92
2022/01/20 06:27:00;;;;;;;4.87;2.47;;;;;;;;;;6250740;23;20197;-92
2022/01/20 06:29:29;;;;;;;10.33;3.23;;;;;;;;;;6250223;23;20182;-93
2022/01/20 06:31:57;;;;;;;11.30;4.50;;;;;;;;;;6249171;23;20174;-89
2022/01/20 06:34:26;;;;;;;12.47;3.83;;;;;;;;;;6249700;23;20174;-93
2022/01/20 06:36:54;;;;;;;17.07;2.40;;;;;;;;;;6249288;23;20204;-92
2022/01/20 06:39:24;;;;;;;8.20;3.83;;;;;;;;;;6249296;23;20178;-92
2022/01/20 06:41:53;;;;;;;4.83;1.93;;;;;;;;;;6249725;23;20249;-94
2022/01/20 06:44:23;;;;;;;3.97;2.63;;;;;;;;;;6249617;23;20201;-92
2022/01/20 06:46:51;;;;;;;8.77;2.87;;;;;;;;;;6249966;23;20173;-92
2022/01/20 06:49:20;;;;;;;13.27;3.37;;;;;;;;;;6249712;23;20174;-91
2022/01/20 06:51:51;;;;;;;9.67;3.23;;;;;;;;;;6252567;23;20192;-91
2022/01/20 06:54:23;;;;;;;8.87;3.53;;;;;;;;;;6256556;23;20177;-92
2022/01/20 06:56:56;;;;;;;6.00;3.00;;;;;;;;;;6269002;23;20173;-92
2022/01/20 06:59:30;;;;;;;5.20;3.20;;;;;;;;;;6270944;23;20225;-92
2022/01/20 07:02:00;;;;;;;5.03;2.23;;;;;;;;;;6268908;23;20220;-91
2022/01/20 07:04:35;;;;;;;6.57;2.23;;;;;;;;;;6269526;22;20225;-91
2022/01/20 07:07:14;;;;;;;5.83;2.57;;;;;;;;;;6268814;23;20176;-92
2022/01/20 07:10:03;;;;;;;4.53;2.27;;;;;;;;;;6269180;23;20186;-92
2022/01/20 07:12:56;;;;;;;14.23;4.17;;;;;;;;;;6269180;23;20173;-91
2022/01/20 07:15:55;;;;;;;3.73;2.13;;;;;;;;;;6260466;23;20169;-88
2022/01/20 07:18:39;;;;;;;6.70;1.67;;;;;;;;;;6243823;23;20235;-92
2022/01/20 07:27:29;;;;;;;13.43;3.40;;;;;;;;;;6269165;23;20169;-92
2022/01/20 07:30:04;;;;;;;8.83;2.40;;;;;;;;;;6261098;23;20173;-93
2022/01/20 07:32:41;;;;;;;8.63;3.50;;;;;;;;;;6264858;23;20223;-93
2022/01/20 07:35:20;;;;;;;4.17;2.47;;;;;;;;;;6263970;23;20225;-93
2022/01/20 07:37:55;;;;;;;16.87;3.97;;;;;;;;;;6264246;23;20176;-94
2022/01/20 07:40:40;;;;;;;8.73;3.57;;;;;;;;;;6263600;23;20180;-93
2022/01/20 07:43:09;;;;;;;5.33;2.47;;;;;;;;;;6263921;23;20174;-93
2022/01/20 07:45:52;;;;;;;12.17;3.20;;;;;;;;;;6263299;23;20200;-94
2022/01/20 07:48:26;;;;;;;9.83;2.83;;;;;;;;;;6261355;23;20193;-94
2022/01/20 07:51:10;;;;;;;6.87;2.70;;;;;;;;;;6232541;23;20181;-93
2022/01/20 07:53:46;;;;;;;7.97;3.50;;;;;;;;;;6258299;23;20170;-92
2022/01/20 07:56:17;;;;;;;9.73;4.07;;;;;;;;;;6255349;23;20170;-92
2022/01/20 07:58:47;;;;;;;7.00;2.57;;;;;;;;;;6255724;23;20162;-93
2022/01/20 08:01:16;;;;;;;6.10;3.10;;;;;;;;;;6254762;23;20170;-93
2022/01/20 08:03:47;;;;;;;3.30;1.67;;;;;;;;;;6253609;22;20201;-93
2022/01/20 08:06:19;;;;;;;10.23;2.60;;;;;;;;;;6253601;23;20177;-92
2022/01/20 08:08:51;;;;;;;8.00;3.87;;;;;;;;;;6252430;23;20196;-92
2022/01/20 08:11:22;;;;;;;13.47;3.80;;;;;;;;;;6253747;23;20166;-93
2022/01/20 08:13:51;;;;;;;4.00;2.60;;;;;;;;;;6253581;23;20176;-92
2022/01/20 08:16:22;;;;;;;6.27;2.60;;;;;;;;;;6254629;23;20181;-93
2022/01/20 08:18:55;;;;;;;9.97;2.93;;;;;;;;;;6253492;23;20170;-89
2022/01/20 08:21:36;;;;;;;7.27;2.33;;;;;;;;;;6250896;23;20253;-94
2022/01/20 08:24:24;;;;;;;4.37;2.40;;;;;;;;;;6249175;23;20181;-94
2022/01/20 08:26:53;;;;;;;4.70;2.40;;;;;;;;;;6249480;23;20173;-95
2022/01/20 08:29:23;;;;;;;9.77;3.20;;;;;;;;;;6249950;23;20216;-94
2022/01/20 08:31:59;;;;;;;8.47;2.00;;;;;;;;;;6249308;23;20169;-93
2022/01/20 08:34:29;;;;;;;6.93;2.03;;;;;;;;;;6249018;23;20189;-93
2022/01/20 08:36:59;;;;;;;4.13;2.33;;;;;;;;;;6250077;23;20174;-93
2022/01/20 08:39:44;;;;;;;7.73;2.67;;;;;;;;;;6250543;23;20180;-94
2022/01/20 08:42:16;;;;;;;6.90;3.03;;;;;;;;;;6251421;23;20189;-94
2022/01/20 08:44:45;;;;;;;2.73;1.93;;;;;;;;;;6250379;23;20173;-92
2022/01/20 08:47:18;;;;;;;8.80;2.73;;;;;;;;;;6250532;23;20173;-93
2022/01/20 08:49:53;;;;;;;4.40;2.63;;;;;;;;;;6251084;23;20194;-89
2022/01/20 08:52:22;;;;;;;4.17;2.03;;;;;;;;;;6250638;23;20252;-93
2022/01/20 08:55:00;;;;;;;8.43;2.13;;;;;;;;;;6251237;23;20200;-93
2022/01/20 08:57:30;;;;;;;11.17;2.60;;;;;;;;;;6251704;23;20181;-92
2022/01/20 08:59:59;;;;;;;6.07;2.67;;;;;;;;;;6251851;23;20259;-93
2022/01/20 09:02:32;;;;;;;4.27;2.70;;;;;;;;;;6250971;22;20186;-94
2022/01/20 09:05:30;;;;;;;5.40;2.90;;;;;;;;;;6252035;23;20165;-93
2022/01/20 09:08:01;;;;;;;6.30;3.13;;;;;;;;;;6251976;23;20184;-93
2022/01/20 09:10:37;;;;;;;4.77;2.13;;;;;;;;;;6252424;23;20166;-92
2022/01/20 09:15:59;;;;;;;2.67;2.20;;;;;;;;;;6250955;23;20177;-94
2022/01/20 09:18:32;;;;;;;8.17;2.73;;;;;;;;;;6251310;23;20173;-92
2022/01/20 09:21:20;;;;;;;4.57;2.30;;;;;;;;;;6250678;23;20268;-94
2022/01/20 09:23:54;;;;;;;7.00;1.73;;;;;;;;;;6250280;23;20224;-93
2022/01/20 09:26:29;;;;;;;4.90;1.70;;;;;;;;;;6250457;23;20176;-93
2022/01/20 09:28:58;;;;;;;5.37;2.57;;;;;;;;;;6249981;23;20200;-94
2022/01/20 09:31:32;;;;;;;12.23;2.60;;;;;;;;;;6250268;23;20174;-92
2022/01/20 09:34:06;;;;;;;9.10;2.53;;;;;;;;;;6250430;23;20212;-93
2022/01/20 09:36:36;;;;;;;9.03;2.40;;;;;;;;;;6250796;23;20169;-93
2022/01/20 09:39:06;;;;;;;3.37;2.30;;;;;;;;;;6250166;23;20236;-93
2022/01/20 09:41:35;;;;;;;9.13;2.80;;;;;;;;;;6250617;23;20166;-93
2022/01/20 09:44:10;;;;;;;4.33;2.57;;;;;;;;;;6250288;23;20170;-94
2022/01/20 09:46:39;;;;;;;11.27;3.10;;;;;;;;;;6250001;23;20177;-93
2022/01/20 09:49:09;;;;;;;7.63;2.60;;;;;;;;;;6250156;23;20193;-93
2022/01/20 09:51:37;;;;;;;6.57;1.90;;;;;;;;;;6249949;23;20174;-93
2022/01/20 09:54:08;;;;;;;8.17;1.67;;;;;;;;;;6250458;23;20227;-93
2022/01/20 09:56:41;;;;;;;3.53;1.60;;;;;;;;;;6250085;23;20228;-93
2022/01/20 09:59:10;;;;;;;7.50;3.20;;;;;;;;;;6250052;23;20272;-93
2022/01/20 10:01:44;;;;;;;3.57;1.83;;;;;;;;;;6249699;23;20182;-93
2022/01/20 10:04:21;;;;;;;6.63;2.37;;;;;;;;;;6250772;22;20269;-94
2022/01/20 10:06:53;;;;;;;8.03;2.93;;;;;;;;;;6250514;23;20173;-93
2022/01/20 10:09:36;;;;;;;5.20;1.80;;;;;;;;;;6249553;23;20189;-93
2022/01/20 10:12:06;;;;;;;4.33;2.53;;;;;;;;;;6250241;23;20192;-92
2022/01/20 10:14:40;;;;;;;5.83;2.23;;;;;;;;;;6249794;23;20174;-93
2022/01/20 10:17:16;;;;;;;3.93;1.87;;;;;;;;;;6251049;23;20226;-92
2022/01/20 10:19:44;;;;;;;12.90;1.97;;;;;;;;;;6249676;23;20169;-93
2022/01/20 10:22:14;;;;;;;4.13;2.07;;;;;;;;;;6250004;23;20170;-93
2022/01/20 10:24:58;;;;;;;2.10;1.40;;;;;;;;;;6249831;23;20169;-93
2022/01/20 10:27:26;;;;;;;13.70;3.13;;;;;;;;;;6250088;23;20165;-93
2022/01/20 10:30:01;;;;;;;2.83;1.83;;;;;;;;;;6250196;23;20194;-95
2022/01/20 10:32:40;;;;;;;3.43;2.57;;;;;;;;;;6249591;23;20556;-93
2022/01/20 10:35:09;;;;;;;5.80;2.97;;;;;;;;;;6249583;23;20169;-94
2022/01/20 10:37:40;;;;;;;5.17;2.60;;;;;;;;;;6249269;23;20200;-93
2022/01/20 10:40:11;;;;;;;10.17;4.27;;;;;;;;;;6249890;23;20169;-94
2022/01/20 10:42:42;;;;;;;10.47;3.13;;;;;;;;;;6249454;23;20228;-94
2022/01/20 10:45:20;;;;;;;10.80;3.00;;;;;;;;;;6249257;23;20179;-94
2022/01/20 10:47:50;;;;;;;6.30;1.97;;;;;;;;;;6249077;23;20177;-93
2022/01/20 10:50:22;;;;;;;4.83;2.23;;;;;;;;;;6249490;23;20189;-93
2022/01/20 10:52:52;;;;;;;3.43;2.07;;;;;;;;;;6248960;23;20179;-94
2022/01/20 10:55:31;;;;;;;9.13;2.33;;;;;;;;;;6249659;23;20275;-93
2022/01/20 10:58:11;;;;;;;2.83;2.00;;;;;;;;;;6249480;23;20173;-92
2022/01/20 11:00:42;;;;;;;2.20;1.50;;;;;;;;;;6249329;23;20201;-93
2022/01/20 11:03:12;;;;;;;3.20;1.93;;;;;;;;;;6248658;22;20194;-94
2022/01/20 11:05:50;;;;;;;3.27;1.70;;;;;;;;;;6248994;23;20173;-93
2022/01/20 11:08:22;;;;;;;7.20;2.47;;;;;;;;;;6248801;23;20165;-93
2022/01/20 11:10:54;;;;;;;2.37;2.27;;;;;;;;;;6248422;23;20194;-93
2022/01/20 11:13:25;;;;;;;10.40;2.57;;;;;;;;;;6249925;23;20169;-92
2022/01/20 11:15:53;;;;;;;11.87;2.63;;;;;;;;;;6249658;23;20174;-93
2022/01/20 11:18:27;;;;;;;4.30;2.70;;;;;;;;;;6248527;23;20174;-94
2022/01/20 11:20:59;;;;;;;9.07;3.33;;;;;;;;;;6249265;23;20196;-92
2022/01/20 11:23:36;;;;;;;4.90;2.50;;;;;;;;;;6248764;23;20196;-93
2022/01/20 11:26:07;;;;;;;7.07;3.10;;;;;;;;;;6249461;23;20165;-93
2022/01/20 11:28:35;;;;;;;4.47;1.83;;;;;;;;;;6248932;23;20175;-93
2022/01/20 11:31:06;;;;;;;2.03;1.90;;;;;;;;;;6248960;23;20200;-93
2022/01/20 11:33:35;;;;;;;8.23;2.90;;;;;;;;;;6248986;23;20161;-92
2022/01/20 11:36:04;;;;;;;14.17;3.53;;;;;;;;;;6249105;23;20173;-91
2022/01/20 11:38:41;;;;;;;13.83;3.33;;;;;;;;;;6249280;23;20224;-92
2022/01/20 11:41:13;;;;;;;11.77;2.90;;;;;;;;;;6249258;23;20170;-91
2022/01/20 11:43:43;;;;;;;4.37;2.67;;;;;;;;;;6248735;23;20192;-91
2022/01/20 11:46:14;;;;;;;8.03;2.37;;;;;;;;;;6249131;23;20174;-92
2022/01/20 11:48:56;;;;;;;7.53;3.10;;;;;;;;;;6249394;23;20169;-92
2022/01/20 11:51:26;;;;;;;6.93;2.60;;;;;;;;;;6249218;23;20193;-91
2022/01/20 11:54:17;;;;;;;5.73;2.77;;;;;;;;;;6248909;23;20200;-92
2022/01/20 11:56:47;;;;;;;6.23;2.90;;;;;;;;;;6249263;23;20166;-91
2022/01/20 11:59:16;;;;;;;6.23;1.97;;;;;;;;;;6248473;23;20225;-92
2022/01/20 12:01:47;;;;;;;8.73;2.97;;;;;;;;;;6249295;23;20170;-92
2022/01/20 12:04:18;;;;;;;4.70;2.53;;;;;;;;;;6248632;22;20706;-92
2022/01/20 12:06:48;;;;;;;9.13;2.80;;;;;;;;;;6248702;23;20173;-92
2022/01/20 12:09:33;;;;;;;9.00;2.97;;;;;;;;;;6248684;23;20235;-91
2022/01/20 12:12:04;;;;;;;5.50;1.73;;;;;;;;;;6248455;23;20240;-90
2022/01/20 12:14:36;;;;;;;8.40;3.50;;;;;;;;;;6248754;23;20220;-92
2022/01/20 12:17:06;;;;;;;5.40;2.47;;;;;;;;;;6249032;23;20196;-91
2022/01/20 12:19:35;;;;;;;8.93;2.07;;;;;;;;;;6247786;23;20177;-92
2022/01/20 12:22:09;;;;;;;10.17;2.50;;;;;;;;;;6248532;23;20174;-92
2022/01/20 12:24:38;;;;;;;6.10;1.70;;;;;;;;;;6248542;23;20173;-91
2022/01/20 12:27:17;;;;;;;3.27;1.60;;;;;;;;;;6248675;23;20174;-92
2022/01/20 12:29:46;;;;;;;6.00;2.47;;;;;;;;;;6248625;23;20173;-92
2022/01/20 12:32:26;;;;;;;5.20;1.77;;;;;;;;;;6248966;23;20260;-89
2022/01/20 12:34:59;;;;;;;4.70;1.93;;;;;;;;;;6249100;23;20185;-91
2022/01/20 12:37:34;;;;;;;1.17;1.10;;;;;;;;;;6248633;23;20281;-91
2022/01/20 12:40:09;;;;;;;1.47;1.47;;;;;;;;;;6248626;23;20224;-91
2022/01/20 12:42:42;;;;;;;8.47;2.03;;;;;;;;;;6247687;23;20174;-92
2022/01/20 12:47:53;;;;;;;2.00;1.50;;;;;;;;;;6246864;23;20174;-91
2022/01/20 12:50:30;;;;;;;7.30;2.07;;;;;;;;;;6248532;23;20216;-92
2022/01/20 12:52:59;;;;;;;7.50;2.63;;;;;;;;;;6249133;23;20185;-91
2022/01/20 12:55:27;;;;;;;8.70;2.80;;;;;;;;;;6248349;23;20240;-91
2022/01/20 12:58:00;;;;;;;5.97;2.47;;;;;;;;;;6249010;23;20200;-90
2022/01/20 13:00:29;;;;;;;11.03;2.90;;;;;;;;;;6247961;23;20211;-91
2022/01/20 13:02:58;;;;;;;4.23;2.03;;;;;;;;;;6248326;22;20198;-91
2022/01/20 13:05:28;;;;;;;7.00;2.47;;;;;;;;;;6249262;23;20186;-91
2022/01/20 13:07:58;;;;;;;6.03;2.97;;;;;;;;;;6248697;23;20171;-91
2022/01/20 13:10:33;;;;;;;10.43;4.67;;;;;;;;;;6248089;23;20193;-90
2022/01/20 13:13:05;;;;;;;2.63;1.50;;;;;;;;;;6248366;23;20186;-91
2022/01/20 13:15:34;;;;;;;4.60;3.47;;;;;;;;;;6249106;23;20162;-91
2022/01/20 13:18:05;;;;;;;15.57;4.70;;;;;;;;;;6248698;23;20166;-91
2022/01/20 13:20:40;;;;;;;11.83;3.83;;;;;;;;;;6250736;23;20243;-93
2022/01/20 13:23:54;;;;;;;6.77;3.33;;;;;;;;;;6249945;23;20165;-92
2022/01/20 13:26:09;;;;;;;9.77;3.60;;;;;;;;;;6250969;23;20170;-92
2022/01/20 13:28:39;;;;;;;8.07;3.50;;;;;;;;;;6250627;23;20162;-92
2022/01/20 13:31:15;;;;;;;10.40;4.90;;;;;;;;;;6251068;23;20189;-92
2022/01/20 13:33:44;;;;;;;5.37;2.63;;;;;;;;;;6250723;23;20173;-93
2022/01/20 13:36:13;;;;;;;3.87;2.10;;;;;;;;;;6250406;23;20170;-91
2022/01/20 13:38:48;;;;;;;5.53;2.90;;;;;;;;;;6249510;23;20177;-92
2022/01/20 13:41:19;;;;;;;10.73;3.50;;;;;;;;;;6250790;23;20568;-89
2022/01/20 13:46:39;;;;;;;8.30;3.03;;;;;;;;;;6249917;23;20162;-92
2022/01/20 13:49:08;;;;;;;8.53;3.03;;;;;;;;;;6250149;23;20179;-90
2022/01/20 13:51:37;;;;;;;7.60;3.20;;;;;;;;;;6249439;23;20259;-95
2022/01/20 13:54:05;;;;;;;3.13;1.97;;;;;;;;;;6249839;23;20174;-91
2022/01/20 13:56:34;;;;;;;6.00;2.20;;;;;;;;;;6249924;23;20174;-90
2022/01/20 13:59:05;;;;;;;2.30;1.50;;;;;;;;;;6249428;23;20271;-90
2022/01/20 14:01:54;;;;;;;7.00;3.60;;;;;;;;;;6249003;23;20256;-89
2022/01/20 14:04:24;;;;;;;4.30;1.70;;;;;;;;;;6249651;22;20194;-89
2022/01/20 14:06:53;;;;;;;4.13;2.37;;;;;;;;;;6249919;23;20158;-89
2022/01/20 14:09:21;;;;;;;9.13;2.03;;;;;;;;;;6248969;23;20249;-90
2022/01/20 14:11:50;;;;;;;7.23;2.37;;;;;;;;;;6248586;23;20194;-90
2022/01/20 14:14:20;;;;;;;5.87;2.20;;;;;;;;;;6248871;23;20227;-89
2022/01/20 14:16:48;;;;;;;14.10;3.47;;;;;;;;;;6248766;23;20174;-89
2022/01/20 14:19:22;;;;;;;3.53;1.50;;;;;;;;;;6249400;23;20178;-89
2022/01/20 14:21:51;;;;;;;15.20;3.77;;;;;;;;;;6249532;23;20200;-89
2022/01/20 14:24:19;;;;;;;13.00;4.23;;;;;;;;;;6248855;23;20276;-89
2022/01/20 14:26:48;;;;;;;15.37;3.73;;;;;;;;;;6249074;23;20239;-89
2022/01/20 14:29:16;;;;;;;10.97;2.97;;;;;;;;;;6248682;23;20194;-88
2022/01/20 14:31:46;;;;;;;14.13;3.93;;;;;;;;;;6248600;23;20194;-88
2022/01/20 14:34:15;;;;;;;29.80;3.10;;;;;;;;;;6248524;23;20170;-89
2022/01/20 14:36:43;;;;;;;4.63;2.30;;;;;;;;;;6248911;23;20174;-88
2022/01/20 14:39:12;;;;;;;7.47;2.90;;;;;;;;;;6248857;23;20173;-88
2022/01/20 14:41:40;;;;;;;4.27;2.87;;;;;;;;;;6249319;23;20197;-88
2022/01/20 14:44:08;;;;;;;5.83;2.93;;;;;;;;;;6249363;23;20201;-88
2022/01/20 14:46:38;;;;;;;5.77;3.67;;;;;;;;;;6248242;23;20181;-87
2022/01/20 14:49:08;;;;;;;6.27;2.07;;;;;;;;;;6247920;23;20177;-89
2022/01/20 14:51:38;;;;;;;8.37;3.00;;;;;;;;;;6247487;23;20209;-90
2022/01/20 14:54:07;;;;;;;7.17;3.07;;;;;;;;;;6248441;23;20174;-90
2022/01/20 14:56:36;;;;;;;2.47;1.40;;;;;;;;;;6248737;23;20201;-89
2022/01/20 14:59:05;;;;;;;2.73;2.10;;;;;;;;;;6248173;23;20223;-89
2022/01/20 15:01:33;;;;;;;7.10;2.83;;;;;;;;;;6249353;23;20166;-88
2022/01/20 15:04:02;;;;;;;9.43;2.23;;;;;;;;;;6248186;22;20268;-88
2022/01/20 15:06:32;;;;;;;6.53;3.47;;;;;;;;;;6248536;23;20207;-89
2022/01/20 15:09:01;;;;;;;9.27;2.47;;;;;;;;;;6249635;23;20170;-90
2022/01/20 15:11:30;;;;;;;5.97;2.57;;;;;;;;;;6249242;23;20201;-89
2022/01/20 15:13:58;;;;;;;8.80;4.50;;;;;;;;;;6249681;23;20223;-90
2022/01/20 15:16:27;;;;;;;6.60;2.40;;;;;;;;;;6248297;23;20194;-88
2022/01/20 15:18:59;;;;;;;6.73;4.13;;;;;;;;;;6248298;23;20174;-89
2022/01/20 15:21:28;;;;;;;3.17;2.13;;;;;;;;;;6248547;23;20184;-89
2022/01/20 15:23:58;;;;;;;7.97;2.93;;;;;;;;;;6248798;23;20232;-90
2022/01/20 15:26:27;;;;;;;5.93;2.67;;;;;;;;;;6249188;23;20166;-91
2022/01/20 15:28:59;;;;;;;4.50;2.33;;;;;;;;;;6248880;23;20176;-91
2022/01/20 15:31:29;;;;;;;7.30;1.53;;;;;;;;;;6248710;23;20272;-91
2022/01/20 15:33:58;;;;;;;2.20;1.50;;;;;;;;;;6248018;23;20173;-91
2022/01/20 15:36:27;;;;;;;15.30;2.50;;;;;;;;;;6248814;23;20174;-91
2022/01/20 15:38:55;;;;;;;5.10;2.27;;;;;;;;;;6248672;23;20177;-92
2022/01/20 15:41:25;;;;;;;1.87;1.40;;;;;;;;;;6248298;23;20176;-92
2022/01/20 15:43:54;;;;;;;8.70;3.70;;;;;;;;;;6248365;23;20170;-92
2022/01/20 15:46:23;;;;;;;7.70;2.20;;;;;;;;;;6247744;23;20207;-92
2022/01/20 15:48:52;;;;;;;4.17;1.83;;;;;;;;;;6248458;23;20204;-92
2022/01/20 15:51:20;;;;;;;6.10;2.50;;;;;;;;;;6248396;23;20174;-92
2022/01/20 15:53:49;;;;;;;15.73;4.53;;;;;;;;;;6247989;23;20217;-93
2022/01/20 15:56:17;;;;;;;11.03;2.80;;;;;;;;;;6248175;23;20170;-93
2022/01/20 15:58:47;;;;;;;13.20;3.37;;;;;;;;;;6248270;23;20227;-93
2022/01/20 16:01:16;;;;;;;6.97;2.87;;;;;;;;;;6247911;23;20224;-92
2022/01/20 16:03:45;;;;;;;18.47;4.20;;;;;;;;;;6248741;22;20193;-93